Ana Sayfa
METAR-TAF:

METAR-TAF

Havaalanları :

Kahire Uluslararası Havalimanı

Kahire, Mısır

Enlem: 30-08N, Boylam: 031-24E, yükseklik: 64 m

Güncel hava durumu gözlemi

Rapor saat 00:00 UTC de 23 dakika önce yapıldı.
Rüzgar kuzeydan 6 kt
Sıcaklık 24°C
Nem 74%
Basınç 1014 hPa
Görüş mesafesi 10 km veya daha fazla
1500 m altında bulut yok ve kümülonimbus yok

METAR: HECA 230000Z 35006KT CAVOK 24/19 Q1014 NOSIG

Saat: 02:23 (00:23 UTC)

Tahmin

Rapor saat 23:00 UTC de 1 saat ve 23 dakika önce yapıldı.
Ayın 23'si saat 00 UTC'den ayın 24'si saat 06 UTC'ye kadar geçerli Tahmin
Rüzgar kuzeydan 9 kt
Görüş mesafesi 10 km veya daha fazla
1500 m altında bulut yok ve kümülonimbus yok
Geçici
ayın 23'si saat 00 UTC'den ayın 23'si saat 06 UTC'ye kadar
Rüzgar değişken yönden 3 kt
Görüş mesafesi: 3000 m
Pus

TAF: HECA 222300Z 2300/2406 35009KT CAVOK TEMPO 2300/2306 VRB03KT 3000 BR NSC

4.000'den fazla havaalanı için hava durumu gözlemleri ve tahminleri (METAR ve TAF raporları).

Kullanılabilir istasyonlar harita üzerinde sarı ve kırmızı noktalarla gösterilir.

İstasyonun adını görmek için fareyi noktanın üzerinde gezdirin.

Sonrasında hava gözlem ve tahminlerini görmek için tıklayın.

Haritayı değiştirmek için: yaklaştırmak için siyah artı işaretli yeşil düğmeye ve uzaklaştırmak için de eksi işaretli düğmeye hızla tıklayın; bitişik haritalar için yeşil okları kullanın.


METAR-TAF: